logo
Search for airport 
image banner adimage banner adimage banner ad
image banner ad

LFH153 - Nice Hopital L'archet 2

Located in , France

ICAO - , IATA -

Data provided by Airmate  

General information

Coordinates: N43°41'51" E7°13'34"
Elevation is 608 feet MSL.
Magnetic variation is 2.39° East
View others Airports in Provence-Alpes-Côte-d'Azur

Operational data

Special qualification required
Current time UTC:
Current local time:
Weather at : LFMN - Nice Cote D'azur ( 4 km )
METAR: LFMN 241130Z 12007KT 9999 FEW016 BKN260 28/22 Q1012 NOSIG
TAF: TAF LFMN 240800Z 2409/2515 10010KT CAVOK BECMG 2416/2418 VRB03KT
View NOTAMs / SUP AIP / TFR affecting this airport [VIEW]
Communications frequencies: [VIEW]

Runways:

Airport contact information

Address: France

Satellite view of LFH153